Terminal Aerodrome Forecast
Issued by NWS

Home | Current Version | Previous Version | Text Only | Print | Product List | Glossary On
Versions: 1 2 3 4 5 6 7 8 9 10 11 12
858
FTUS46 KLOX 162339
TAFVNY
TAF
KVNY 162339Z 1700/1724 14007KT P6SM BKN150
     FM170300 VRB03KT P6SM BKN200
     FM171500 35007KT P6SM SCT200=

USA.gov is the U.S. government's official web portal to all federal, state and local government web resources and services.